sensor_id;sensor_type;location;lat;lon;timestamp;temperature;humidity
49224;DHT22;35050;51.316;5.994;2022-10-26T00:00:11;12.50;99.90
49224;DHT22;35050;51.316;5.994;2022-10-26T00:02:37;12.60;99.90
49224;DHT22;35050;51.316;5.994;2022-10-26T00:05:02;12.60;99.90
49224;DHT22;35050;51.316;5.994;2022-10-26T00:07:28;12.60;99.90
49224;DHT22;35050;51.316;5.994;2022-10-26T00:09:54;12.70;99.90
49224;DHT22;35050;51.316;5.994;2022-10-26T00:12:20;12.70;99.90
49224;DHT22;35050;51.316;5.994;2022-10-26T00:14:45;12.70;99.90
49224;DHT22;35050;51.316;5.994;2022-10-26T00:17:11;12.70;99.90
49224;DHT22;35050;51.316;5.994;2022-10-26T00:19:36;12.70;99.90
49224;DHT22;35050;51.316;5.994;2022-10-26T00:22:02;12.70;99.90
49224;DHT22;35050;51.316;5.994;2022-10-26T00:24:27;12.70;99.90
49224;DHT22;35050;51.316;5.994;2022-10-26T00:26:53;12.70;99.90
49224;DHT22;35050;51.316;5.994;2022-10-26T00:29:18;12.60;99.90
49224;DHT22;35050;51.316;5.994;2022-10-26T00:31:44;12.60;99.90
49224;DHT22;35050;51.316;5.994;2022-10-26T00:34:10;12.60;99.90
49224;DHT22;35050;51.316;5.994;2022-10-26T00:36:36;12.60;99.90
49224;DHT22;35050;51.316;5.994;2022-10-26T00:39:02;12.60;99.90
49224;DHT22;35050;51.316;5.994;2022-10-26T00:41:29;12.60;99.90
49224;DHT22;35050;51.316;5.994;2022-10-26T00:43:55;12.70;99.90
49224;DHT22;35050;51.316;5.994;2022-10-26T00:46:21;12.70;99.90
49224;DHT22;35050;51.316;5.994;2022-10-26T00:48:49;12.70;99.90
49224;DHT22;35050;51.316;5.994;2022-10-26T00:51:22;12.60;99.90
49224;DHT22;35050;51.316;5.994;2022-10-26T00:53:49;12.60;99.90
49224;DHT22;35050;51.316;5.994;2022-10-26T00:56:15;12.70;99.90
49224;DHT22;35050;51.316;5.994;2022-10-26T00:58:41;12.60;99.90
49224;DHT22;35050;51.316;5.994;2022-10-26T01:01:07;12.60;99.90
49224;DHT22;35050;51.316;5.994;2022-10-26T01:03:33;12.60;99.90
49224;DHT22;35050;51.316;5.994;2022-10-26T01:06:00;12.60;99.90
49224;DHT22;35050;51.316;5.994;2022-10-26T01:08:26;12.60;99.90
49224;DHT22;35050;51.316;5.994;2022-10-26T01:10:53;12.60;99.90
49224;DHT22;35050;51.316;5.994;2022-10-26T01:13:19;12.60;99.90
49224;DHT22;35050;51.316;5.994;2022-10-26T01:15:55;12.60;99.90
49224;DHT22;35050;51.316;5.994;2022-10-26T01:23:33;12.50;99.90
49224;DHT22;35050;51.316;5.994;2022-10-26T01:31:04;12.60;99.90
49224;DHT22;35050;51.316;5.994;2022-10-26T01:33:41;12.60;99.90
49224;DHT22;35050;51.316;5.994;2022-10-26T01:36:11;12.60;99.90
49224;DHT22;35050;51.316;5.994;2022-10-26T01:38:51;12.60;99.90
49224;DHT22;35050;51.316;5.994;2022-10-26T01:46:53;12.70;99.90
49224;DHT22;35050;51.316;5.994;2022-10-26T01:49:20;12.60;99.90
49224;DHT22;35050;51.316;5.994;2022-10-26T01:51:48;12.60;99.90
49224;DHT22;35050;51.316;5.994;2022-10-26T01:54:14;12.60;99.90
49224;DHT22;35050;51.316;5.994;2022-10-26T01:56:40;12.60;99.90
49224;DHT22;35050;51.316;5.994;2022-10-26T01:59:15;12.60;99.90
49224;DHT22;35050;51.316;5.994;2022-10-26T02:07:02;12.60;99.90
49224;DHT22;35050;51.316;5.994;2022-10-26T02:09:37;12.60;99.90
49224;DHT22;35050;51.316;5.994;2022-10-26T02:12:05;12.70;99.90
49224;DHT22;35050;51.316;5.994;2022-10-26T02:14:38;12.70;99.90
49224;DHT22;35050;51.316;5.994;2022-10-26T02:17:14;12.70;99.90
49224;DHT22;35050;51.316;5.994;2022-10-26T02:19:42;12.80;99.90
49224;DHT22;35050;51.316;5.994;2022-10-26T02:22:17;12.80;99.90
49224;DHT22;35050;51.316;5.994;2022-10-26T02:24:43;12.80;99.90
49224;DHT22;35050;51.316;5.994;2022-10-26T02:27:11;12.80;99.90
49224;DHT22;35050;51.316;5.994;2022-10-26T02:29:37;12.80;99.90
49224;DHT22;35050;51.316;5.994;2022-10-26T02:32:04;12.90;99.90
49224;DHT22;35050;51.316;5.994;2022-10-26T02:34:31;12.80;99.90
49224;DHT22;35050;51.316;5.994;2022-10-26T02:36:57;12.90;99.90
49224;DHT22;35050;51.316;5.994;2022-10-26T02:39:24;12.90;99.90
49224;DHT22;35050;51.316;5.994;2022-10-26T02:41:50;12.90;99.90
49224;DHT22;35050;51.316;5.994;2022-10-26T02:46:42;12.90;99.90
49224;DHT22;35050;51.316;5.994;2022-10-26T02:49:08;12.90;99.90
49224;DHT22;35050;51.316;5.994;2022-10-26T02:51:37;12.90;99.90
49224;DHT22;35050;51.316;5.994;2022-10-26T02:57:14;12.90;99.90
49224;DHT22;35050;51.316;5.994;2022-10-26T02:59:14;13.00;99.90
49224;DHT22;35050;51.316;5.994;2022-10-26T03:01:40;13.00;99.90
49224;DHT22;35050;51.316;5.994;2022-10-26T03:04:06;13.00;99.90
49224;DHT22;35050;51.316;5.994;2022-10-26T03:06:32;13.10;99.90
49224;DHT22;35050;51.316;5.994;2022-10-26T03:08:58;13.10;99.90
49224;DHT22;35050;51.316;5.994;2022-10-26T03:11:23;13.10;99.90
49224;DHT22;35050;51.316;5.994;2022-10-26T03:13:49;13.10;99.90
49224;DHT22;35050;51.316;5.994;2022-10-26T03:16:14;13.10;99.90
49224;DHT22;35050;51.316;5.994;2022-10-26T03:18:40;13.10;99.90
49224;DHT22;35050;51.316;5.994;2022-10-26T03:21:05;13.10;99.90
49224;DHT22;35050;51.316;5.994;2022-10-26T03:23:31;13.20;99.90
49224;DHT22;35050;51.316;5.994;2022-10-26T03:25:57;13.10;99.90
49224;DHT22;35050;51.316;5.994;2022-10-26T03:28:22;13.20;99.90
49224;DHT22;35050;51.316;5.994;2022-10-26T03:30:48;13.30;99.90
49224;DHT22;35050;51.316;5.994;2022-10-26T03:33:13;13.20;99.90
49224;DHT22;35050;51.316;5.994;2022-10-26T03:35:39;13.20;99.90
49224;DHT22;35050;51.316;5.994;2022-10-26T03:38:04;13.30;99.90
49224;DHT22;35050;51.316;5.994;2022-10-26T03:40:30;13.20;99.90
49224;DHT22;35050;51.316;5.994;2022-10-26T03:42:55;13.30;99.90
49224;DHT22;35050;51.316;5.994;2022-10-26T03:45:21;13.30;99.90
49224;DHT22;35050;51.316;5.994;2022-10-26T03:47:47;13.30;99.90
49224;DHT22;35050;51.316;5.994;2022-10-26T03:50:13;13.30;99.90
49224;DHT22;35050;51.316;5.994;2022-10-26T03:52:39;13.30;99.90
49224;DHT22;35050;51.316;5.994;2022-10-26T03:55:05;13.30;99.90
49224;DHT22;35050;51.316;5.994;2022-10-26T03:57:31;13.30;99.90
49224;DHT22;35050;51.316;5.994;2022-10-26T03:59:57;13.30;99.90
49224;DHT22;35050;51.316;5.994;2022-10-26T04:02:22;13.30;99.90
49224;DHT22;35050;51.316;5.994;2022-10-26T04:04:47;13.30;99.90
49224;DHT22;35050;51.316;5.994;2022-10-26T04:07:13;13.30;99.90
49224;DHT22;35050;51.316;5.994;2022-10-26T04:09:38;13.30;99.90
49224;DHT22;35050;51.316;5.994;2022-10-26T04:12:04;13.30;99.90
49224;DHT22;35050;51.316;5.994;2022-10-26T04:14:30;13.30;99.90
49224;DHT22;35050;51.316;5.994;2022-10-26T04:16:55;13.30;99.90
49224;DHT22;35050;51.316;5.994;2022-10-26T04:19:21;13.30;99.90
49224;DHT22;35050;51.316;5.994;2022-10-26T04:21:46;13.30;99.90
49224;DHT22;35050;51.316;5.994;2022-10-26T04:24:12;13.20;99.90
49224;DHT22;35050;51.316;5.994;2022-10-26T04:26:37;13.20;99.90
49224;DHT22;35050;51.316;5.994;2022-10-26T04:29:03;13.20;99.90
49224;DHT22;35050;51.316;5.994;2022-10-26T04:31:32;13.30;99.90
49224;DHT22;35050;51.316;5.994;2022-10-26T04:33:57;13.20;99.90
49224;DHT22;35050;51.316;5.994;2022-10-26T04:36:23;13.30;99.90
49224;DHT22;35050;51.316;5.994;2022-10-26T04:38:48;13.20;99.90
49224;DHT22;35050;51.316;5.994;2022-10-26T04:41:14;13.20;99.90
49224;DHT22;35050;51.316;5.994;2022-10-26T04:43:39;13.30;99.90
49224;DHT22;35050;51.316;5.994;2022-10-26T04:46:05;13.30;99.90
49224;DHT22;35050;51.316;5.994;2022-10-26T04:48:30;13.30;99.90
49224;DHT22;35050;51.316;5.994;2022-10-26T04:50:59;13.30;99.90
49224;DHT22;35050;51.316;5.994;2022-10-26T04:53:25;13.30;99.90
49224;DHT22;35050;51.316;5.994;2022-10-26T04:55:59;13.30;99.90
49224;DHT22;35050;51.316;5.994;2022-10-26T04:58:26;13.30;99.90
49224;DHT22;35050;51.316;5.994;2022-10-26T05:00:51;13.30;99.90
49224;DHT22;35050;51.316;5.994;2022-10-26T05:03:17;13.30;99.90
49224;DHT22;35050;51.316;5.994;2022-10-26T05:05:42;13.30;99.90
49224;DHT22;35050;51.316;5.994;2022-10-26T05:08:08;13.40;99.90
49224;DHT22;35050;51.316;5.994;2022-10-26T05:10:33;13.50;99.90
49224;DHT22;35050;51.316;5.994;2022-10-26T05:12:59;13.50;99.90
49224;DHT22;35050;51.316;5.994;2022-10-26T05:15:25;13.40;99.90
49224;DHT22;35050;51.316;5.994;2022-10-26T05:17:54;13.40;99.90
49224;DHT22;35050;51.316;5.994;2022-10-26T05:20:21;13.40;99.90
49224;DHT22;35050;51.316;5.994;2022-10-26T05:22:53;13.50;99.90
49224;DHT22;35050;51.316;5.994;2022-10-26T05:25:18;13.50;99.90
49224;DHT22;35050;51.316;5.994;2022-10-26T05:27:44;13.50;99.90
49224;DHT22;35050;51.316;5.994;2022-10-26T05:30:09;13.50;99.90
49224;DHT22;35050;51.316;5.994;2022-10-26T05:32:35;13.50;99.90
49224;DHT22;35050;51.316;5.994;2022-10-26T05:35:00;13.50;99.90
49224;DHT22;35050;51.316;5.994;2022-10-26T05:37:29;13.50;99.90
49224;DHT22;35050;51.316;5.994;2022-10-26T05:39:55;13.50;99.90
49224;DHT22;35050;51.316;5.994;2022-10-26T05:42:20;13.50;99.90
49224;DHT22;35050;51.316;5.994;2022-10-26T05:44:46;13.40;99.90
49224;DHT22;35050;51.316;5.994;2022-10-26T05:47:11;13.50;99.90
49224;DHT22;35050;51.316;5.994;2022-10-26T05:49:37;13.50;99.90
49224;DHT22;35050;51.316;5.994;2022-10-26T05:52:02;13.50;99.90
49224;DHT22;35050;51.316;5.994;2022-10-26T05:54:28;13.50;99.90
49224;DHT22;35050;51.316;5.994;2022-10-26T05:56:53;13.60;99.90
49224;DHT22;35050;51.316;5.994;2022-10-26T05:59:19;13.60;99.90
49224;DHT22;35050;51.316;5.994;2022-10-26T06:04:35;13.70;99.90
49224;DHT22;35050;51.316;5.994;2022-10-26T06:07:03;13.70;99.90
49224;DHT22;35050;51.316;5.994;2022-10-26T06:09:32;13.60;99.90
49224;DHT22;35050;51.316;5.994;2022-10-26T06:11:58;13.60;99.90
49224;DHT22;35050;51.316;5.994;2022-10-26T06:14:26;13.60;99.90
49224;DHT22;35050;51.316;5.994;2022-10-26T06:21:56;13.60;99.90
49224;DHT22;35050;51.316;5.994;2022-10-26T06:29:31;13.60;99.90
49224;DHT22;35050;51.316;5.994;2022-10-26T06:32:01;13.60;99.90
49224;DHT22;35050;51.316;5.994;2022-10-26T06:34:28;13.70;99.90
49224;DHT22;35050;51.316;5.994;2022-10-26T06:36:56;13.60;99.90
49224;DHT22;35050;51.316;5.994;2022-10-26T06:39:22;13.70;99.90
49224;DHT22;35050;51.316;5.994;2022-10-26T06:41:50;13.60;99.90
49224;DHT22;35050;51.316;5.994;2022-10-26T06:44:20;13.70;99.90
49224;DHT22;35050;51.316;5.994;2022-10-26T06:46:47;13.70;99.90
49224;DHT22;35050;51.316;5.994;2022-10-26T06:49:26;13.70;99.90
49224;DHT22;35050;51.316;5.994;2022-10-26T06:54:23;13.80;99.90
49224;DHT22;35050;51.316;5.994;2022-10-26T06:56:50;13.90;99.90
49224;DHT22;35050;51.316;5.994;2022-10-26T06:59:20;13.90;99.90
49224;DHT22;35050;51.316;5.994;2022-10-26T07:01:47;13.90;99.90
49224;DHT22;35050;51.316;5.994;2022-10-26T07:04:13;13.90;99.90
49224;DHT22;35050;51.316;5.994;2022-10-26T07:06:38;13.90;99.90
49224;DHT22;35050;51.316;5.994;2022-10-26T07:09:04;13.90;99.90
49224;DHT22;35050;51.316;5.994;2022-10-26T07:11:29;13.90;99.90
49224;DHT22;35050;51.316;5.994;2022-10-26T07:13:55;14.00;99.90
49224;DHT22;35050;51.316;5.994;2022-10-26T07:16:21;14.00;99.90
49224;DHT22;35050;51.316;5.994;2022-10-26T07:18:47;14.00;99.90
49224;DHT22;35050;51.316;5.994;2022-10-26T07:21:13;14.00;99.90
49224;DHT22;35050;51.316;5.994;2022-10-26T07:23:38;14.00;99.90
49224;DHT22;35050;51.316;5.994;2022-10-26T07:26:04;14.10;99.90
49224;DHT22;35050;51.316;5.994;2022-10-26T07:28:29;14.20;99.90
49224;DHT22;35050;51.316;5.994;2022-10-26T07:30:55;14.30;99.90
49224;DHT22;35050;51.316;5.994;2022-10-26T07:33:22;14.30;99.90
49224;DHT22;35050;51.316;5.994;2022-10-26T07:35:48;14.30;99.90
49224;DHT22;35050;51.316;5.994;2022-10-26T07:38:13;14.40;99.90
49224;DHT22;35050;51.316;5.994;2022-10-26T07:40:39;14.40;99.90
49224;DHT22;35050;51.316;5.994;2022-10-26T07:43:04;14.40;99.90
49224;DHT22;35050;51.316;5.994;2022-10-26T07:45:30;14.40;99.90
49224;DHT22;35050;51.316;5.994;2022-10-26T07:47:55;14.40;99.90
49224;DHT22;35050;51.316;5.994;2022-10-26T07:50:21;14.40;99.90
49224;DHT22;35050;51.316;5.994;2022-10-26T07:52:47;14.40;99.90
49224;DHT22;35050;51.316;5.994;2022-10-26T07:55:13;14.40;99.90
49224;DHT22;35050;51.316;5.994;2022-10-26T07:57:38;14.40;99.90
49224;DHT22;35050;51.316;5.994;2022-10-26T08:00:04;14.40;99.90
49224;DHT22;35050;51.316;5.994;2022-10-26T08:02:30;14.50;99.90
49224;DHT22;35050;51.316;5.994;2022-10-26T08:04:56;14.60;99.90
49224;DHT22;35050;51.316;5.994;2022-10-26T08:07:21;14.60;99.90
49224;DHT22;35050;51.316;5.994;2022-10-26T08:09:47;14.60;99.90
49224;DHT22;35050;51.316;5.994;2022-10-26T08:12:13;14.60;99.90
49224;DHT22;35050;51.316;5.994;2022-10-26T08:14:41;14.70;99.90
49224;DHT22;35050;51.316;5.994;2022-10-26T08:17:06;14.70;99.90
49224;DHT22;35050;51.316;5.994;2022-10-26T08:19:32;14.70;99.90
49224;DHT22;35050;51.316;5.994;2022-10-26T08:21:57;14.80;99.90
49224;DHT22;35050;51.316;5.994;2022-10-26T08:24:23;14.80;99.90
49224;DHT22;35050;51.316;5.994;2022-10-26T08:26:48;14.90;99.90
49224;DHT22;35050;51.316;5.994;2022-10-26T08:29:14;14.90;99.90
49224;DHT22;35050;51.316;5.994;2022-10-26T08:31:39;15.00;99.90
49224;DHT22;35050;51.316;5.994;2022-10-26T08:34:04;15.10;99.90
49224;DHT22;35050;51.316;5.994;2022-10-26T08:36:30;15.20;99.90
49224;DHT22;35050;51.316;5.994;2022-10-26T08:38:55;15.20;99.90
49224;DHT22;35050;51.316;5.994;2022-10-26T08:41:37;15.20;99.90
49224;DHT22;35050;51.316;5.994;2022-10-26T08:46:38;15.30;99.90
49224;DHT22;35050;51.316;5.994;2022-10-26T08:49:10;15.40;99.90
49224;DHT22;35050;51.316;5.994;2022-10-26T08:51:40;15.50;99.90
49224;DHT22;35050;51.316;5.994;2022-10-26T08:54:11;15.60;99.90
49224;DHT22;35050;51.316;5.994;2022-10-26T08:56:38;15.60;99.90
49224;DHT22;35050;51.316;5.994;2022-10-26T08:59:16;15.70;99.90
49224;DHT22;35050;51.316;5.994;2022-10-26T09:01:44;15.70;99.90
49224;DHT22;35050;51.316;5.994;2022-10-26T09:04:11;15.90;99.90
49224;DHT22;35050;51.316;5.994;2022-10-26T09:29:05;16.40;99.90
49224;DHT22;35050;51.316;5.994;2022-10-26T09:31:32;16.40;99.90
49224;DHT22;35050;51.316;5.994;2022-10-26T09:33:59;16.40;99.90
49224;DHT22;35050;51.316;5.994;2022-10-26T09:36:26;16.50;99.90
49224;DHT22;35050;51.316;5.994;2022-10-26T09:38:55;16.50;99.90
49224;DHT22;35050;51.316;5.994;2022-10-26T09:41:26;16.50;99.90
49224;DHT22;35050;51.316;5.994;2022-10-26T09:46:26;16.80;99.90
49224;DHT22;35050;51.316;5.994;2022-10-26T09:48:53;17.00;99.90
49224;DHT22;35050;51.316;5.994;2022-10-26T09:51:20;17.20;99.90
49224;DHT22;35050;51.316;5.994;2022-10-26T09:53:47;17.60;99.90
49224;DHT22;35050;51.316;5.994;2022-10-26T09:56:13;17.80;99.90
49224;DHT22;35050;51.316;5.994;2022-10-26T09:58:40;18.00;99.90
49224;DHT22;35050;51.316;5.994;2022-10-26T10:01:06;18.20;99.90
49224;DHT22;35050;51.316;5.994;2022-10-26T10:03:44;18.30;99.90
49224;DHT22;35050;51.316;5.994;2022-10-26T10:06:14;18.30;99.90
49224;DHT22;35050;51.316;5.994;2022-10-26T10:08:43;18.30;99.90
49224;DHT22;35050;51.316;5.994;2022-10-26T10:11:11;18.30;99.90
49224;DHT22;35050;51.316;5.994;2022-10-26T10:13:38;18.40;99.90
49224;DHT22;35050;51.316;5.994;2022-10-26T10:16:20;18.30;99.90
49224;DHT22;35050;51.316;5.994;2022-10-26T10:18:58;18.30;99.90
49224;DHT22;35050;51.316;5.994;2022-10-26T10:24:00;18.40;99.90
49224;DHT22;35050;51.316;5.994;2022-10-26T10:26:25;18.40;99.90
49224;DHT22;35050;51.316;5.994;2022-10-26T10:28:55;18.40;99.90
49224;DHT22;35050;51.316;5.994;2022-10-26T10:31:25;18.30;99.90
49224;DHT22;35050;51.316;5.994;2022-10-26T10:33:51;18.30;99.90
49224;DHT22;35050;51.316;5.994;2022-10-26T10:36:18;18.40;99.90
49224;DHT22;35050;51.316;5.994;2022-10-26T10:38:45;18.40;99.90
49224;DHT22;35050;51.316;5.994;2022-10-26T10:41:30;18.40;99.90
49224;DHT22;35050;51.316;5.994;2022-10-26T10:46:40;18.70;99.90
49224;DHT22;35050;51.316;5.994;2022-10-26T10:49:22;18.70;99.90
49224;DHT22;35050;51.316;5.994;2022-10-26T10:51:49;18.60;99.90
49224;DHT22;35050;51.316;5.994;2022-10-26T10:56:48;18.70;99.90
49224;DHT22;35050;51.316;5.994;2022-10-26T11:04:43;18.90;99.90
49224;DHT22;35050;51.316;5.994;2022-10-26T11:07:12;18.90;99.90
49224;DHT22;35050;51.316;5.994;2022-10-26T11:09:39;18.90;99.90
49224;DHT22;35050;51.316;5.994;2022-10-26T11:12:16;18.90;99.90
49224;DHT22;35050;51.316;5.994;2022-10-26T11:14:46;19.20;99.90
49224;DHT22;35050;51.316;5.994;2022-10-26T11:17:17;19.30;99.90
49224;DHT22;35050;51.316;5.994;2022-10-26T11:22:16;19.70;99.90
49224;DHT22;35050;51.316;5.994;2022-10-26T11:24:48;19.60;99.90
49224;DHT22;35050;51.316;5.994;2022-10-26T11:27:16;19.70;99.90
49224;DHT22;35050;51.316;5.994;2022-10-26T11:32:36;19.70;99.90
49224;DHT22;35050;51.316;5.994;2022-10-26T11:35:12;19.70;99.90
49224;DHT22;35050;51.316;5.994;2022-10-26T11:45:43;20.10;99.90
49224;DHT22;35050;51.316;5.994;2022-10-26T11:50:35;20.50;99.90
49224;DHT22;35050;51.316;5.994;2022-10-26T11:53:07;20.60;99.90
49224;DHT22;35050;51.316;5.994;2022-10-26T11:55:34;20.70;99.90
49224;DHT22;35050;51.316;5.994;2022-10-26T11:58:01;20.80;99.90
49224;DHT22;35050;51.316;5.994;2022-10-26T12:00:27;21.00;99.90
49224;DHT22;35050;51.316;5.994;2022-10-26T12:03:00;21.10;99.90
49224;DHT22;35050;51.316;5.994;2022-10-26T12:05:48;21.30;99.90
49224;DHT22;35050;51.316;5.994;2022-10-26T12:08:17;20.90;99.90
49224;DHT22;35050;51.316;5.994;2022-10-26T12:10:47;21.30;99.90
49224;DHT22;35050;51.316;5.994;2022-10-26T12:13:47;21.40;99.90
49224;DHT22;35050;51.316;5.994;2022-10-26T12:16:08;21.40;99.90
49224;DHT22;35050;51.316;5.994;2022-10-26T12:18:44;21.60;99.90
49224;DHT22;35050;51.316;5.994;2022-10-26T12:21:11;21.90;99.90
49224;DHT22;35050;51.316;5.994;2022-10-26T12:23:37;22.20;99.90
49224;DHT22;35050;51.316;5.994;2022-10-26T12:28:47;22.20;99.90
49224;DHT22;35050;51.316;5.994;2022-10-26T12:33:57;22.50;99.90
49224;DHT22;35050;51.316;5.994;2022-10-26T12:39:23;22.70;99.90
49224;DHT22;35050;51.316;5.994;2022-10-26T12:41:57;23.00;99.90
49224;DHT22;35050;51.316;5.994;2022-10-26T12:46:57;22.60;99.90
49224;DHT22;35050;51.316;5.994;2022-10-26T12:52:17;22.90;99.90
49224;DHT22;35050;51.316;5.994;2022-10-26T12:55:29;23.00;99.90
49224;DHT22;35050;51.316;5.994;2022-10-26T13:00:14;23.30;99.90
49224;DHT22;35050;51.316;5.994;2022-10-26T13:07:59;23.90;99.90
49224;DHT22;35050;51.316;5.994;2022-10-26T13:10:26;24.50;99.90
49224;DHT22;35050;51.316;5.994;2022-10-26T13:17:55;24.90;99.90
49224;DHT22;35050;51.316;5.994;2022-10-26T13:20:22;24.90;99.90
49224;DHT22;35050;51.316;5.994;2022-10-26T13:22:47;24.60;99.90
49224;DHT22;35050;51.316;5.994;2022-10-26T13:25:23;25.30;99.90
49224;DHT22;35050;51.316;5.994;2022-10-26T13:28:00;25.70;99.90
49224;DHT22;35050;51.316;5.994;2022-10-26T13:32:57;26.00;99.90
49224;DHT22;35050;51.316;5.994;2022-10-26T13:35:24;26.40;99.90
49224;DHT22;35050;51.316;5.994;2022-10-26T13:37:52;26.70;99.90
49224;DHT22;35050;51.316;5.994;2022-10-26T13:40:19;26.20;99.90
49224;DHT22;35050;51.316;5.994;2022-10-26T13:42:47;25.80;99.90
49224;DHT22;35050;51.316;5.994;2022-10-26T13:45:36;25.50;99.90
49224;DHT22;35050;51.316;5.994;2022-10-26T13:48:00;24.80;99.90
49224;DHT22;35050;51.316;5.994;2022-10-26T13:50:30;24.70;99.90
49224;DHT22;35050;51.316;5.994;2022-10-26T13:52:58;24.20;99.90
49224;DHT22;35050;51.316;5.994;2022-10-26T13:55:25;23.50;99.90
49224;DHT22;35050;51.316;5.994;2022-10-26T14:00:23;22.70;99.90
49224;DHT22;35050;51.316;5.994;2022-10-26T14:02:48;22.40;99.90
49224;DHT22;35050;51.316;5.994;2022-10-26T14:05:15;22.40;99.90
49224;DHT22;35050;51.316;5.994;2022-10-26T14:07:42;22.40;99.90
49224;DHT22;35050;51.316;5.994;2022-10-26T14:10:28;22.10;99.90
49224;DHT22;35050;51.316;5.994;2022-10-26T14:12:54;21.70;99.90
49224;DHT22;35050;51.316;5.994;2022-10-26T14:15:24;21.80;99.90
49224;DHT22;35050;51.316;5.994;2022-10-26T14:17:51;21.60;99.90
49224;DHT22;35050;51.316;5.994;2022-10-26T14:20:18;21.60;99.90
49224;DHT22;35050;51.316;5.994;2022-10-26T14:22:44;21.50;99.90
49224;DHT22;35050;51.316;5.994;2022-10-26T14:25:18;21.20;99.90
49224;DHT22;35050;51.316;5.994;2022-10-26T14:27:43;21.40;99.90
49224;DHT22;35050;51.316;5.994;2022-10-26T14:32:47;21.40;99.90
49224;DHT22;35050;51.316;5.994;2022-10-26T14:35:12;21.40;99.90
49224;DHT22;35050;51.316;5.994;2022-10-26T14:37:41;21.10;99.90
49224;DHT22;35050;51.316;5.994;2022-10-26T14:40:12;21.00;99.90
49224;DHT22;35050;51.316;5.994;2022-10-26T14:42:39;20.80;99.90
49224;DHT22;35050;51.316;5.994;2022-10-26T14:45:18;20.90;99.90
49224;DHT22;35050;51.316;5.994;2022-10-26T14:47:45;20.80;99.90
49224;DHT22;35050;51.316;5.994;2022-10-26T14:50:17;20.70;99.90
49224;DHT22;35050;51.316;5.994;2022-10-26T14:52:47;20.70;99.90
49224;DHT22;35050;51.316;5.994;2022-10-26T14:55:14;20.80;99.90
49224;DHT22;35050;51.316;5.994;2022-10-26T14:57:40;20.70;99.90
49224;DHT22;35050;51.316;5.994;2022-10-26T15:00:17;20.70;99.90
49224;DHT22;35050;51.316;5.994;2022-10-26T15:02:43;20.60;99.90
49224;DHT22;35050;51.316;5.994;2022-10-26T15:07:44;20.40;99.90
49224;DHT22;35050;51.316;5.994;2022-10-26T15:12:54;20.40;99.90
49224;DHT22;35050;51.316;5.994;2022-10-26T15:15:20;20.30;99.90
49224;DHT22;35050;51.316;5.994;2022-10-26T15:17:48;20.10;99.90
49224;DHT22;35050;51.316;5.994;2022-10-26T15:20:15;20.00;99.90
49224;DHT22;35050;51.316;5.994;2022-10-26T15:22:42;20.10;99.90
49224;DHT22;35050;51.316;5.994;2022-10-26T15:25:12;20.10;99.90
49224;DHT22;35050;51.316;5.994;2022-10-26T15:27:40;20.00;99.90
49224;DHT22;35050;51.316;5.994;2022-10-26T15:30:22;20.00;99.90
49224;DHT22;35050;51.316;5.994;2022-10-26T15:32:48;19.90;99.90
49224;DHT22;35050;51.316;5.994;2022-10-26T15:37:39;19.80;99.90
49224;DHT22;35050;51.316;5.994;2022-10-26T15:40:05;19.70;99.90
49224;DHT22;35050;51.316;5.994;2022-10-26T15:42:31;19.70;99.90
49224;DHT22;35050;51.316;5.994;2022-10-26T15:44:57;19.80;99.90
49224;DHT22;35050;51.316;5.994;2022-10-26T15:47:23;19.70;99.90
49224;DHT22;35050;51.316;5.994;2022-10-26T15:49:53;19.50;99.90
49224;DHT22;35050;51.316;5.994;2022-10-26T15:52:19;19.60;99.90
49224;DHT22;35050;51.316;5.994;2022-10-26T15:54:45;19.50;99.90
49224;DHT22;35050;51.316;5.994;2022-10-26T15:57:11;19.40;99.90
49224;DHT22;35050;51.316;5.994;2022-10-26T15:59:38;19.60;99.90
49224;DHT22;35050;51.316;5.994;2022-10-26T16:02:11;19.50;99.90
49224;DHT22;35050;51.316;5.994;2022-10-26T16:04:36;19.30;99.90
49224;DHT22;35050;51.316;5.994;2022-10-26T16:07:02;19.30;99.90
49224;DHT22;35050;51.316;5.994;2022-10-26T16:09:30;19.30;99.90
49224;DHT22;35050;51.316;5.994;2022-10-26T16:11:55;19.20;99.90
49224;DHT22;35050;51.316;5.994;2022-10-26T16:14:21;19.10;99.90
49224;DHT22;35050;51.316;5.994;2022-10-26T16:16:46;19.10;99.90
49224;DHT22;35050;51.316;5.994;2022-10-26T16:19:12;19.20;99.90
49224;DHT22;35050;51.316;5.994;2022-10-26T16:21:37;19.00;99.90
49224;DHT22;35050;51.316;5.994;2022-10-26T16:24:03;19.00;99.90
49224;DHT22;35050;51.316;5.994;2022-10-26T16:26:28;18.90;99.90
49224;DHT22;35050;51.316;5.994;2022-10-26T16:28:54;18.90;99.90
49224;DHT22;35050;51.316;5.994;2022-10-26T16:31:20;18.90;99.90
49224;DHT22;35050;51.316;5.994;2022-10-26T16:33:46;19.00;99.90
49224;DHT22;35050;51.316;5.994;2022-10-26T16:36:11;18.80;99.90
49224;DHT22;35050;51.316;5.994;2022-10-26T16:38:37;18.70;99.90
49224;DHT22;35050;51.316;5.994;2022-10-26T16:41:07;18.80;99.90
49224;DHT22;35050;51.316;5.994;2022-10-26T16:43:34;18.70;99.90
49224;DHT22;35050;51.316;5.994;2022-10-26T16:46:04;18.60;99.90
49224;DHT22;35050;51.316;5.994;2022-10-26T16:48:30;18.50;99.90
49224;DHT22;35050;51.316;5.994;2022-10-26T16:50:55;18.40;99.90
49224;DHT22;35050;51.316;5.994;2022-10-26T16:53:21;18.40;99.90
49224;DHT22;35050;51.316;5.994;2022-10-26T16:55:47;18.40;99.90
49224;DHT22;35050;51.316;5.994;2022-10-26T16:58:13;18.40;99.90
49224;DHT22;35050;51.316;5.994;2022-10-26T17:00:38;18.40;99.90
49224;DHT22;35050;51.316;5.994;2022-10-26T17:03:04;18.30;99.90
49224;DHT22;35050;51.316;5.994;2022-10-26T17:05:29;18.30;99.90
49224;DHT22;35050;51.316;5.994;2022-10-26T17:07:55;18.30;99.90
49224;DHT22;35050;51.316;5.994;2022-10-26T17:10:20;18.20;99.90
49224;DHT22;35050;51.316;5.994;2022-10-26T17:12:46;18.10;99.90
49224;DHT22;35050;51.316;5.994;2022-10-26T17:15:12;18.10;99.90
49224;DHT22;35050;51.316;5.994;2022-10-26T17:17:37;18.10;99.90
49224;DHT22;35050;51.316;5.994;2022-10-26T17:20:03;18.00;99.90
49224;DHT22;35050;51.316;5.994;2022-10-26T17:22:29;18.00;99.90
49224;DHT22;35050;51.316;5.994;2022-10-26T17:24:54;17.90;99.90
49224;DHT22;35050;51.316;5.994;2022-10-26T17:27:20;17.80;99.90
49224;DHT22;35050;51.316;5.994;2022-10-26T17:29:47;17.90;99.90
49224;DHT22;35050;51.316;5.994;2022-10-26T17:32:13;17.80;99.90
49224;DHT22;35050;51.316;5.994;2022-10-26T17:34:38;17.80;99.90
49224;DHT22;35050;51.316;5.994;2022-10-26T17:37:04;17.60;99.90
49224;DHT22;35050;51.316;5.994;2022-10-26T17:39:29;17.60;99.90
49224;DHT22;35050;51.316;5.994;2022-10-26T17:41:55;17.50;99.90
49224;DHT22;35050;51.316;5.994;2022-10-26T17:44:20;17.50;99.90
49224;DHT22;35050;51.316;5.994;2022-10-26T17:46:46;17.50;99.90
49224;DHT22;35050;51.316;5.994;2022-10-26T17:49:11;17.40;99.90
49224;DHT22;35050;51.316;5.994;2022-10-26T17:51:37;17.40;99.90